Time;durP1;ratioP1;P1;durP2;ratioP2;P2;SDS_P1;SDS_P2;PMS_P1;PMS_P2;Temp;Humidity;BMP_temperature;BMP_pressure;BME280_temperature;BME280_humidity;BME280_pressure;Samples;Min_cycle;Max_cycle;Signal;HPM_P1;HPM_P2
2023/04/05 00:01:54;;;;;;;18.83;7.93;;;-2.20;94.90;;;;;;4968883;28;20162;-77
2023/04/05 00:04:22;;;;;;;19.75;5.80;;;-2.20;94.70;;;;;;4970431;28;20047;-77
2023/04/05 00:06:51;;;;;;;16.13;6.15;;;-2.20;94.70;;;;;;4970531;28;20047;-78
2023/04/05 00:09:19;;;;;;;15.95;7.13;;;-2.30;94.60;;;;;;4974221;28;20050;-78
2023/04/05 00:11:47;;;;;;;24.00;8.63;;;-2.30;94.70;;;;;;4956366;28;20561;-77
2023/04/05 00:14:14;;;;;;;23.17;8.73;;;-2.30;94.90;;;;;;4973070;28;20051;-77
2023/04/05 00:16:41;;;;;;;19.92;8.00;;;-2.40;95.00;;;;;;4971898;28;20069;-77
2023/04/05 00:19:11;;;;;;;19.15;7.63;;;-2.40;95.20;;;;;;4968530;28;20490;-77
2023/04/05 00:21:38;;;;;;;16.70;7.15;;;-2.50;95.60;;;;;;4968151;28;20046;-77
2023/04/05 00:24:06;;;;;;;20.48;7.03;;;-2.50;95.50;;;;;;4968287;28;20046;-77
2023/04/05 00:26:35;;;;;;;21.92;7.53;;;-2.60;95.80;;;;;;4968279;28;20515;-77
2023/04/05 00:29:02;;;;;;;26.38;7.07;;;-2.60;96.10;;;;;;4963783;28;20047;-77
2023/04/05 00:31:29;;;;;;;14.25;6.28;;;-2.60;95.90;;;;;;4967013;28;20051;-77
2023/04/05 00:33:56;;;;;;;18.60;7.50;;;-2.60;96.40;;;;;;4976590;28;20083;-77
2023/04/05 00:36:23;;;;;;;21.45;7.40;;;-2.60;96.30;;;;;;4972977;28;20145;-78
2023/04/05 00:38:50;;;;;;;16.27;8.57;;;-2.60;96.00;;;;;;4974450;28;20058;-78
2023/04/05 00:41:17;;;;;;;16.50;7.18;;;-2.70;96.20;;;;;;4966392;28;20047;-78
2023/04/05 00:43:43;;;;;;;18.92;7.70;;;-2.70;96.60;;;;;;4972826;28;20051;-78
2023/04/05 00:46:10;;;;;;;27.10;6.93;;;-2.70;96.10;;;;;;4968961;28;20472;-78
2023/04/05 00:48:38;;;;;;;20.70;6.35;;;-2.70;96.30;;;;;;4971620;28;20108;-78
2023/04/05 00:51:08;;;;;;;23.17;6.72;;;-2.80;96.50;;;;;;4952704;28;20047;-78
2023/04/05 00:53:36;;;;;;;20.08;5.32;;;-2.80;96.40;;;;;;4982033;28;20050;-77
2023/04/05 00:56:03;;;;;;;12.52;5.63;;;-2.80;96.60;;;;;;4954238;28;20054;-77
2023/04/05 00:58:30;;;;;;;13.88;6.03;;;-2.70;96.50;;;;;;4978042;28;20069;-78
2023/04/05 01:01:26;;;;;;;16.25;4.97;;;-2.70;96.20;;;;;;4966879;28;20055;-78
2023/04/05 01:04:01;;;;;;;21.13;5.50;;;-2.70;96.40;;;;;;4950367;28;20059;-77
2023/04/05 01:06:32;;;;;;;19.48;5.05;;;-2.70;96.60;;;;;;4947475;28;20050;-78
2023/04/05 01:09:07;;;;;;;18.23;5.50;;;-2.60;96.90;;;;;;4967639;28;20058;-78
2023/04/05 01:11:38;;;;;;;15.85;5.95;;;-2.70;96.40;;;;;;4968515;28;20129;-78
2023/04/05 01:14:05;;;;;;;17.92;4.43;;;-2.70;96.20;;;;;;4965530;28;20046;-78
2023/04/05 01:16:32;;;;;;;13.98;5.90;;;-2.80;96.00;;;;;;4967078;28;20051;-78
2023/04/05 01:18:58;;;;;;;16.08;6.43;;;-2.90;95.70;;;;;;4950401;28;20055;-78
2023/04/05 01:21:37;;;;;;;16.63;5.82;;;-2.90;96.30;;;;;;4966588;28;20054;-78
2023/04/05 01:24:08;;;;;;;22.00;6.85;;;-2.90;96.60;;;;;;4970066;28;20101;-78
2023/04/05 01:26:41;;;;;;;13.85;6.10;;;-2.90;96.70;;;;;;4968801;28;20053;-78
2023/04/05 01:29:46;;;;;;;26.27;6.15;;;-2.90;96.70;;;;;;4987767;28;20133;-78
2023/04/05 01:32:27;;;;;;;13.48;5.07;;;-3.00;96.60;;;;;;4967926;28;20046;-78
2023/04/05 01:35:04;;;;;;;13.07;5.00;;;-3.00;97.10;;;;;;4964503;28;20051;-78
2023/04/05 01:37:33;;;;;;;13.20;6.90;;;-3.00;97.50;;;;;;4968785;28;20066;-78
2023/04/05 01:40:01;;;;;;;27.17;6.93;;;-3.00;97.60;;;;;;4952714;28;20503;-78
2023/04/05 01:42:28;;;;;;;28.30;6.40;;;-3.10;98.00;;;;;;4967045;28;20551;-78
2023/04/05 01:44:58;;;;;;;15.40;5.80;;;-3.00;97.90;;;;;;4967805;28;20050;-78
2023/04/05 01:47:25;;;;;;;25.50;7.32;;;-3.10;98.10;;;;;;4969940;28;20050;-78
2023/04/05 01:49:52;;;;;;;18.52;6.53;;;-3.10;98.50;;;;;;4968859;28;20059;-79
2023/04/05 01:52:19;;;;;;;17.20;5.93;;;-3.10;98.20;;;;;;4951314;28;20047;-78
2023/04/05 01:54:45;;;;;;;11.18;5.18;;;-3.10;97.90;;;;;;4967612;28;20050;-78
2023/04/05 01:57:12;;;;;;;24.00;7.07;;;-3.20;97.90;;;;;;4968036;28;20047;-78
2023/04/05 01:59:39;;;;;;;21.75;5.47;;;-3.20;98.00;;;;;;4968785;28;20054;-78
2023/04/05 02:02:06;;;;;;;16.02;5.45;;;-3.20;98.10;;;;;;4971665;28;20054;-78
2023/04/05 02:04:33;;;;;;;14.82;5.72;;;-3.20;97.90;;;;;;4969334;28;20057;-78
2023/04/05 02:06:59;;;;;;;14.80;4.70;;;-3.20;97.90;;;;;;4969705;28;20055;-78
2023/04/05 02:09:26;;;;;;;10.45;4.32;;;-3.20;98.00;;;;;;4980136;23;20050;-78
2023/04/05 02:11:53;;;;;;;9.93;4.03;;;-3.20;98.10;;;;;;4988845;28;20477;-78
2023/04/05 02:14:20;;;;;;;15.18;5.35;;;-3.20;98.30;;;;;;4987784;28;20048;-78
2023/04/05 02:16:47;;;;;;;17.40;5.72;;;-3.20;98.70;;;;;;4988216;28;20060;-78
2023/04/05 02:19:14;;;;;;;15.27;6.15;;;-3.20;98.50;;;;;;4979639;28;20042;-78
2023/04/05 02:21:41;;;;;;;16.65;5.28;;;-3.20;98.00;;;;;;4988158;28;20050;-78
2023/04/05 02:24:08;;;;;;;22.35;6.28;;;-3.20;98.00;;;;;;4979416;28;20054;-78
2023/04/05 02:26:35;;;;;;;17.35;5.07;;;-3.20;97.90;;;;;;4993151;28;20050;-78
2023/04/05 02:29:02;;;;;;;15.85;5.10;;;-3.20;98.10;;;;;;4973218;28;20455;-78
2023/04/05 02:34:35;;;;;;;13.37;4.77;;;-3.30;98.30;;;;;;5004371;28;20077;-78
2023/04/05 02:37:02;;;;;;;11.82;4.43;;;-3.30;98.30;;;;;;5000859;28;20880;-78
2023/04/05 02:39:29;;;;;;;14.65;4.72;;;-3.30;98.80;;;;;;5003270;28;20065;-78
2023/04/05 02:41:56;;;;;;;11.63;4.03;;;-3.30;98.70;;;;;;5001250;28;20057;-79
2023/04/05 02:44:23;;;;;;;13.20;4.63;;;-3.30;98.60;;;;;;5001403;28;20591;-78
2023/04/05 02:46:50;;;;;;;17.67;4.93;;;-3.30;98.50;;;;;;4981720;28;20067;-79
2023/04/05 02:49:16;;;;;;;26.75;6.10;;;-3.30;98.70;;;;;;5000860;28;20413;-79
2023/04/05 02:51:43;;;;;;;14.48;5.20;;;-3.30;98.30;;;;;;5003228;28;20053;-79
2023/04/05 02:54:10;;;;;;;14.85;4.97;;;-3.30;98.50;;;;;;5001438;28;20045;-78
2023/04/05 02:56:37;;;;;;;13.57;4.75;;;-3.20;98.40;;;;;;5002498;28;20049;-78
2023/04/05 02:59:04;;;;;;;20.15;4.93;;;-3.20;98.40;;;;;;5006115;28;20755;-79
2023/04/05 03:01:31;;;;;;;13.40;5.07;;;-3.10;98.80;;;;;;4988308;28;20458;-79
2023/04/05 03:03:58;;;;;;;12.40;4.63;;;-2.90;98.80;;;;;;5001601;28;20112;-79
2023/04/05 03:06:26;;;;;;;16.80;5.32;;;-2.90;98.40;;;;;;5004877;28;20514;-79
2023/04/05 03:08:54;;;;;;;20.33;5.35;;;-2.90;98.30;;;;;;5005536;28;20481;-78
2023/04/05 03:11:21;;;;;;;13.13;4.75;;;-2.90;98.20;;;;;;5010508;28;20132;-79
2023/04/05 03:13:48;;;;;;;25.52;5.72;;;-2.90;97.70;;;;;;5010118;28;20631;-79
2023/04/05 03:16:15;;;;;;;12.30;5.15;;;-3.00;97.30;;;;;;5001196;28;20088;-79
2023/04/05 03:18:42;;;;;;;13.23;5.72;;;-3.00;97.30;;;;;;5005380;28;20053;-78
2023/04/05 03:21:11;;;;;;;18.67;4.97;;;-3.00;97.10;;;;;;5007249;28;20472;-79
2023/04/05 03:23:38;;;;;;;13.10;4.53;;;-3.00;97.00;;;;;;5008266;28;20050;-79
2023/04/05 03:26:05;;;;;;;13.90;5.28;;;-3.00;97.50;;;;;;5019055;28;20045;-79
2023/04/05 03:28:32;;;;;;;18.52;6.32;;;-3.00;97.90;;;;;;5010021;28;20125;-79
2023/04/05 03:30:59;;;;;;;9.38;4.65;;;-2.90;98.60;;;;;;5010124;28;20050;-79
2023/04/05 03:33:26;;;;;;;11.63;5.35;;;-2.80;98.40;;;;;;4993304;28;20046;-79
2023/04/05 03:35:52;;;;;;;18.40;4.55;;;-2.70;98.30;;;;;;5008460;28;20414;-79
2023/04/05 03:38:19;;;;;;;18.60;5.75;;;-2.70;98.10;;;;;;5005894;28;20054;-79
2023/04/05 03:40:46;;;;;;;15.50;5.05;;;-2.60;98.00;;;;;;5003535;28;20049;-79
2023/04/05 03:43:13;;;;;;;13.85;5.15;;;-2.50;97.20;;;;;;5003750;28;20056;-79
2023/04/05 03:45:40;;;;;;;12.23;5.00;;;-2.40;97.20;;;;;;5005550;28;20054;-79
2023/04/05 03:48:07;;;;;;;25.65;5.47;;;-2.40;96.70;;;;;;5003586;28;20046;-79
2023/04/05 03:50:34;;;;;;;16.35;5.53;;;-2.30;96.60;;;;;;5003151;28;20057;-79
2023/04/05 03:53:01;;;;;;;16.42;5.03;;;-2.30;96.70;;;;;;5004582;28;20451;-79
2023/04/05 03:55:28;;;;;;;24.48;5.63;;;-2.20;96.90;;;;;;5000868;28;20058;-79
2023/04/05 03:57:54;;;;;;;18.63;5.53;;;-2.20;96.50;;;;;;5008372;28;20391;-79
2023/04/05 04:00:23;;;;;;;22.83;6.55;;;-2.20;96.40;;;;;;5022383;28;20045;-79
2023/04/05 04:02:51;;;;;;;17.27;5.63;;;-2.20;96.00;;;;;;5009945;28;20506;-78
2023/04/05 04:05:19;;;;;;;17.60;4.93;;;-2.30;96.10;;;;;;5020745;28;20176;-78
2023/04/05 04:07:47;;;;;;;12.05;5.45;;;-2.20;96.40;;;;;;5007099;28;20053;-79
2023/04/05 04:10:18;;;;;;;14.63;5.50;;;-2.20;96.60;;;;;;5000884;28;20176;-79
2023/04/05 04:12:45;;;;;;;15.10;5.00;;;-2.20;96.60;;;;;;4996022;28;20053;-78
2023/04/05 04:15:12;;;;;;;15.55;5.00;;;-2.20;96.60;;;;;;5001156;28;20449;-79
2023/04/05 04:17:39;;;;;;;11.82;4.65;;;-2.20;96.30;;;;;;5020037;28;20379;-79
2023/04/05 04:20:09;;;;;;;18.42;5.40;;;-2.10;96.40;;;;;;5008095;28;20058;-79
2023/04/05 04:22:38;;;;;;;14.68;5.80;;;-2.00;96.30;;;;;;5004309;28;20048;-79
2023/04/05 04:25:11;;;;;;;13.07;5.03;;;-2.00;96.50;;;;;;5004190;28;20591;-78
2023/04/05 04:27:41;;;;;;;20.50;5.72;;;-1.90;96.30;;;;;;5005761;28;20448;-78
2023/04/05 04:30:10;;;;;;;14.57;5.10;;;-1.80;96.10;;;;;;5004557;28;20918;-78
2023/04/05 04:32:57;;;;;;;11.13;5.38;;;-1.80;96.00;;;;;;5003781;28;20069;-78
2023/04/05 04:35:27;;;;;;;13.95;5.38;;;-1.70;95.90;;;;;;4985875;28;20049;-78
2023/04/05 04:38:03;;;;;;;13.38;4.97;;;-1.70;95.80;;;;;;5002637;28;20081;-78
2023/04/05 04:40:38;;;;;;;19.38;5.90;;;-1.60;95.20;;;;;;5002078;28;20085;-79
2023/04/05 04:43:05;;;;;;;15.68;6.18;;;-1.60;95.40;;;;;;4984353;28;20505;-78
2023/04/05 04:45:36;;;;;;;16.15;5.50;;;-1.60;95.40;;;;;;5002877;28;20099;-79
2023/04/05 04:48:04;;;;;;;19.08;5.13;;;-1.50;95.40;;;;;;5004705;28;20561;-79
2023/04/05 04:50:31;;;;;;;23.48;4.88;;;-1.50;95.00;;;;;;5006828;28;20054;-79
2023/04/05 04:52:59;;;;;;;17.85;6.07;;;-1.50;94.80;;;;;;5000882;28;20046;-79
2023/04/05 04:55:27;;;;;;;15.27;5.88;;;-1.50;95.30;;;;;;5003744;28;20050;-80
2023/04/05 04:57:55;;;;;;;20.42;6.78;;;-1.40;95.30;;;;;;5006359;28;20057;-79
2023/04/05 05:00:22;;;;;;;20.48;6.78;;;-1.40;94.70;;;;;;4990675;28;20046;-81
2023/04/05 05:02:51;;;;;;;16.17;6.68;;;-1.30;95.00;;;;;;4984978;28;20141;-77
2023/04/05 05:05:22;;;;;;;18.95;6.50;;;-1.30;94.70;;;;;;5001110;28;20050;-80
2023/04/05 05:07:49;;;;;;;19.17;8.10;;;-1.20;94.80;;;;;;4985839;28;20403;-78
2023/04/05 05:10:17;;;;;;;27.63;8.30;;;-1.10;94.40;;;;;;4986132;28;20496;-80
2023/04/05 05:12:44;;;;;;;20.95;8.75;;;-1.10;94.70;;;;;;4998504;28;20513;-80
2023/04/05 05:15:11;;;;;;;22.27;7.57;;;-1.10;94.50;;;;;;4985615;28;20049;-79
2023/04/05 05:17:38;;;;;;;12.13;5.25;;;-1.00;94.60;;;;;;4988695;28;20189;-80
2023/04/05 05:20:09;;;;;;;18.27;5.68;;;-1.10;95.00;;;;;;4989535;28;20046;-81
2023/04/05 05:22:38;;;;;;;16.83;4.80;;;-1.00;95.10;;;;;;5008492;28;20104;-80
2023/04/05 05:25:07;;;;;;;21.90;5.85;;;-1.00;95.30;;;;;;5010167;28;20049;-78
2023/04/05 05:27:34;;;;;;;17.88;5.60;;;-0.90;95.20;;;;;;5007874;28;20050;-77
2023/04/05 05:30:01;;;;;;;10.82;4.68;;;-0.90;95.30;;;;;;5006822;28;20046;-77
2023/04/05 05:32:28;;;;;;;12.13;5.43;;;-0.80;95.20;;;;;;5003167;28;20049;-77
2023/04/05 05:34:54;;;;;;;17.30;5.57;;;-0.70;94.80;;;;;;4993294;28;20065;-77
2023/04/05 05:37:29;;;;;;;13.15;5.47;;;-0.60;95.20;;;;;;5005748;28;20137;-77
2023/04/05 05:39:56;;;;;;;28.38;6.47;;;-0.50;94.80;;;;;;5005245;28;20054;-78
2023/04/05 05:42:22;;;;;;;14.13;5.60;;;-0.30;94.20;;;;;;5009325;28;20505;-77
2023/04/05 05:44:52;;;;;;;22.15;6.05;;;-0.20;93.40;;;;;;5007174;28;20081;-77
2023/04/05 05:47:20;;;;;;;14.15;5.70;;;-0.10;92.70;;;;;;5005713;28;20050;-77
2023/04/05 05:49:48;;;;;;;17.08;6.72;;;0.00;92.60;;;;;;5010948;28;20050;-77
2023/04/05 05:52:15;;;;;;;19.73;6.07;;;0.10;92.30;;;;;;5019258;28;20733;-77
2023/04/05 05:54:42;;;;;;;21.45;7.03;;;0.20;92.00;;;;;;5005637;28;20042;-78
2023/04/05 05:57:09;;;;;;;22.83;6.28;;;0.30;91.00;;;;;;5004820;28;20098;-77
2023/04/05 05:59:36;;;;;;;19.45;7.32;;;0.30;91.70;;;;;;5011563;28;20088;-77
2023/04/05 06:02:03;;;;;;;17.30;6.65;;;0.50;91.10;;;;;;5001472;28;20070;-77
2023/04/05 06:04:30;;;;;;;21.45;7.18;;;0.60;90.70;;;;;;5001085;28;20074;-77
2023/04/05 06:06:57;;;;;;;15.70;6.80;;;0.70;90.10;;;;;;5014005;28;20065;-78
2023/04/05 06:09:24;;;;;;;23.15;7.28;;;0.80;90.00;;;;;;5007873;28;20050;-77
2023/04/05 06:11:52;;;;;;;16.30;6.35;;;0.90;89.70;;;;;;4980417;28;20050;-77
2023/04/05 06:14:23;;;;;;;17.63;6.32;;;0.90;89.00;;;;;;4981688;28;20720;-78
2023/04/05 06:16:51;;;;;;;19.67;6.63;;;1.00;88.70;;;;;;4985820;28;20406;-78
2023/04/05 06:19:17;;;;;;;15.75;6.05;;;1.10;89.60;;;;;;5003555;28;20045;-78
2023/04/05 06:21:44;;;;;;;20.27;6.68;;;1.20;87.90;;;;;;4999116;28;20060;-79
2023/04/05 06:24:11;;;;;;;17.27;6.28;;;1.30;88.50;;;;;;4997613;28;20049;-78
2023/04/05 06:26:38;;;;;;;14.90;6.00;;;1.50;87.00;;;;;;4998876;28;20050;-78
2023/04/05 06:29:05;;;;;;;17.05;6.22;;;1.60;87.30;;;;;;4993351;28;21607;-78
2023/04/05 06:31:33;;;;;;;14.50;6.95;;;1.70;87.20;;;;;;4997864;28;20046;-78
2023/04/05 06:34:01;;;;;;;26.30;6.35;;;1.80;87.20;;;;;;5002784;28;20131;-78
2023/04/05 06:36:32;;;;;;;22.73;7.22;;;1.90;87.10;;;;;;4984795;28;20577;-78
2023/04/05 06:39:00;;;;;;;14.00;7.03;;;2.00;86.80;;;;;;5004915;28;20045;-79
2023/04/05 06:41:27;;;;;;;17.35;6.60;;;2.10;86.80;;;;;;5010857;28;20062;-78
2023/04/05 06:43:54;;;;;;;19.27;7.00;;;2.30;85.30;;;;;;4995139;28;20053;-78
2023/04/05 06:46:22;;;;;;;20.23;7.70;;;2.50;84.80;;;;;;5009140;28;20382;-77
2023/04/05 06:48:50;;;;;;;10.80;5.95;;;2.70;84.10;;;;;;4992906;28;20441;-76
2023/04/05 06:51:17;;;;;;;17.67;6.90;;;2.70;82.50;;;;;;5007798;28;20062;-77
2023/04/05 06:53:44;;;;;;;14.35;6.47;;;2.70;81.80;;;;;;4992193;28;20050;-77
2023/04/05 06:56:12;;;;;;;18.52;7.07;;;2.90;82.20;;;;;;4991364;28;20098;-76
2023/04/05 06:58:39;;;;;;;23.17;7.20;;;3.10;81.30;;;;;;5008583;28;20073;-77
2023/04/05 07:01:06;;;;;;;15.30;7.25;;;3.30;80.80;;;;;;5007737;28;20425;-78
2023/04/05 07:03:33;;;;;;;21.40;7.00;;;3.40;79.60;;;;;;4996235;28;20525;-77
2023/04/05 07:06:00;;;;;;;15.82;6.55;;;3.60;78.90;;;;;;5008099;28;20479;-77
2023/04/05 07:08:30;;;;;;;20.17;6.82;;;3.70;77.70;;;;;;5009294;28;20053;-77
2023/04/05 07:10:57;;;;;;;15.50;7.28;;;3.90;78.30;;;;;;5008820;28;20053;-77
2023/04/05 07:13:24;;;;;;;19.15;7.32;;;4.10;76.80;;;;;;5008741;28;20057;-77
2023/04/05 07:15:52;;;;;;;18.13;7.55;;;4.20;74.50;;;;;;5007466;28;20081;-75
2023/04/05 07:18:19;;;;;;;20.35;6.80;;;4.30;73.70;;;;;;5007497;28;20041;-75
2023/04/05 07:20:48;;;;;;;13.85;6.90;;;4.40;74.60;;;;;;5010537;28;20057;-74
2023/04/05 07:23:15;;;;;;;17.20;6.70;;;4.50;73.80;;;;;;5005855;28;20050;-75
2023/04/05 07:25:42;;;;;;;17.25;6.90;;;4.60;73.90;;;;;;5008253;28;20120;-78
2023/04/05 07:28:09;;;;;;;34.58;9.20;;;4.70;72.70;;;;;;4997985;28;20049;-77
2023/04/05 07:30:36;;;;;;;18.05;7.28;;;4.80;72.70;;;;;;5003828;28;20516;-78
2023/04/05 07:33:03;;;;;;;19.10;7.47;;;4.90;71.80;;;;;;5016322;28;20048;-78
2023/04/05 07:35:30;;;;;;;16.00;7.15;;;4.80;71.80;;;;;;5005099;28;20096;-79
2023/04/05 07:37:57;;;;;;;20.35;6.53;;;5.00;72.80;;;;;;5024713;28;20049;-79
2023/04/05 07:40:24;;;;;;;15.45;6.88;;;5.20;71.50;;;;;;5010412;28;20127;-82
2023/04/05 07:42:51;;;;;;;18.85;8.25;;;5.50;70.50;;;;;;5017530;28;20070;-82
2023/04/05 07:45:18;;;;;;;16.75;6.88;;;5.70;70.70;;;;;;4998290;28;20046;-83
2023/04/05 07:47:45;;;;;;;10.48;5.82;;;6.30;70.10;;;;;;5011387;28;20056;-86
2023/04/05 07:50:13;;;;;;;28.10;7.63;;;6.60;68.50;;;;;;5003393;28;20096;-84
2023/04/05 07:52:41;;;;;;;15.32;5.43;;;6.60;68.90;;;;;;5004454;28;20050;-84
2023/04/05 07:55:09;;;;;;;11.65;4.82;;;6.80;66.10;;;;;;5013252;28;20099;-83
2023/04/05 07:57:36;;;;;;;25.80;4.97;;;6.50;65.20;;;;;;5012738;28;20482;-84
2023/04/05 08:00:10;;;;;;;16.75;5.03;;;6.70;66.40;;;;;;5010580;28;20161;-81
2023/04/05 08:02:37;;;;;;;9.70;4.60;;;6.60;68.10;;;;;;5008603;28;20050;-77
2023/04/05 08:05:05;;;;;;;12.80;4.82;;;7.00;66.00;;;;;;5006528;28;20120;-79
2023/04/05 08:07:31;;;;;;;13.02;5.05;;;7.00;66.10;;;;;;4992497;28;20397;-77
2023/04/05 08:09:58;;;;;;;11.18;4.95;;;7.00;65.90;;;;;;5006970;28;20053;-77
2023/04/05 08:12:27;;;;;;;32.00;5.47;;;7.20;66.80;;;;;;4991303;28;20053;-74
2023/04/05 08:14:55;;;;;;;12.82;5.10;;;7.10;66.00;;;;;;4992630;28;20046;-75
2023/04/05 08:17:25;;;;;;;16.85;4.90;;;7.20;65.60;;;;;;5006538;28;20072;-75
2023/04/05 08:19:53;;;;;;;13.73;5.05;;;7.50;67.80;;;;;;5006451;28;20140;-74
2023/04/05 08:22:20;;;;;;;16.73;5.05;;;7.60;65.90;;;;;;5002858;28;20057;-74
2023/04/05 08:24:47;;;;;;;21.63;6.30;;;7.60;67.10;;;;;;4999331;28;20684;-74
2023/04/05 08:27:14;;;;;;;16.48;4.82;;;8.40;66.90;;;;;;5004065;28;20678;-74
2023/04/05 08:29:41;;;;;;;13.35;5.20;;;8.80;63.60;;;;;;5005752;28;20568;-76
2023/04/05 08:32:08;;;;;;;9.88;4.78;;;9.00;63.30;;;;;;4989871;28;20413;-79
2023/04/05 08:34:35;;;;;;;21.75;5.38;;;8.60;65.50;;;;;;5007151;28;20165;-76
2023/04/05 08:37:02;;;;;;;12.00;5.05;;;9.00;63.90;;;;;;5005719;28;20053;-77
2023/04/05 08:39:29;;;;;;;12.90;5.45;;;9.30;64.70;;;;;;5005685;28;20509;-75
2023/04/05 08:42:09;;;;;;;12.52;4.90;;;9.70;63.20;;;;;;4985431;28;20061;-75
2023/04/05 08:44:36;;;;;;;12.95;5.07;;;9.60;62.10;;;;;;5002368;28;20060;-75
2023/04/05 08:47:03;;;;;;;10.70;5.47;;;9.60;64.10;;;;;;5005418;28;20058;-74
2023/04/05 08:49:30;;;;;;;11.82;5.30;;;10.30;62.20;;;;;;5005338;28;20065;-74
2023/04/05 08:51:59;;;;;;;15.38;5.93;;;10.30;61.00;;;;;;5006997;28;20057;-78
2023/04/05 08:54:26;;;;;;;10.95;5.50;;;10.10;62.20;;;;;;4989758;28;20053;-77
2023/04/05 08:56:55;;;;;;;29.85;6.45;;;9.80;61.60;;;;;;5008482;28;20502;-77
2023/04/05 08:59:23;;;;;;;17.77;7.15;;;10.80;61.70;;;;;;5006949;28;20045;-78
2023/04/05 09:01:51;;;;;;;16.30;5.50;;;11.90;60.50;;;;;;5014967;28;20111;-80
2023/04/05 09:04:22;;;;;;;25.45;5.75;;;13.10;57.00;;;;;;5023135;22;20073;-73
2023/04/05 09:06:50;;;;;;;15.25;5.32;;;13.90;56.40;;;;;;5023549;28;20057;-74
2023/04/05 09:09:20;;;;;;;59.17;7.22;;;13.50;53.70;;;;;;5024721;28;20045;-74
2023/04/05 09:11:47;;;;;;;11.43;5.43;;;14.30;53.20;;;;;;5004445;28;20514;-74
2023/04/05 09:14:15;;;;;;;24.48;8.10;;;15.30;49.90;;;;;;5024298;28;20052;-70
2023/04/05 09:16:42;;;;;;;19.52;8.35;;;14.70;52.60;;;;;;5020018;28;20076;-69
2023/04/05 09:19:10;;;;;;;18.33;6.60;;;14.40;52.40;;;;;;5000864;28;20049;-71
2023/04/05 09:22:04;;;;;;;10.55;6.65;;;14.60;51.30;;;;;;5024388;28;20053;-71
2023/04/05 09:24:32;;;;;;;14.98;6.38;;;14.90;49.60;;;;;;5022965;28;20065;-70
2023/04/05 09:27:08;;;;;;;14.10;6.00;;;15.60;49.50;;;;;;5021392;28;20037;-70
2023/04/05 09:29:35;;;;;;;10.10;5.10;;;15.80;48.40;;;;;;5020985;28;20582;-71
2023/04/05 09:32:04;;;;;;;9.90;5.28;;;15.50;48.40;;;;;;5020272;28;20501;-71
2023/04/05 09:34:32;;;;;;;17.73;5.80;;;15.10;49.90;;;;;;5020248;28;20041;-72
2023/04/05 09:36:59;;;;;;;10.23;5.95;;;16.50;47.50;;;;;;5024104;28;20068;-71
2023/04/05 09:39:31;;;;;;;9.98;5.65;;;17.40;47.10;;;;;;5030567;28;20060;-72
2023/04/05 09:42:06;;;;;;;10.65;5.50;;;16.50;47.00;;;;;;5023051;28;20049;-72
2023/04/05 09:44:56;;;;;;;;;;;16.60;45.70;;;;;;5018234;28;20057;-72
2023/04/05 09:47:31;;;;;;;15.13;5.13;;;15.60;44.20;;;;;;5017702;28;19928;-71
2023/04/05 09:49:59;;;;;;;13.05;5.53;;;13.50;49.80;;;;;;5000835;28;20045;-73
2023/04/05 09:52:30;;;;;;;14.90;5.57;;;12.90;51.50;;;;;;5020701;28;20061;-70
2023/04/05 09:55:00;;;;;;;10.45;5.05;;;13.50;54.00;;;;;;5018516;28;20049;-72
2023/04/05 09:57:32;;;;;;;10.15;4.68;;;14.50;49.00;;;;;;5020872;28;20053;-72
2023/04/05 09:59:59;;;;;;;18.20;5.20;;;13.90;47.50;;;;;;5022592;28;20049;-71
2023/04/05 10:02:35;;;;;;;9.80;5.75;;;13.80;49.00;;;;;;5018647;28;20061;-70
2023/04/05 10:05:06;;;;;;;11.65;4.75;;;13.60;48.90;;;;;;5015863;28;20448;-70
2023/04/05 10:07:34;;;;;;;11.60;4.75;;;12.30;49.80;;;;;;5017986;28;20053;-70
2023/04/05 10:10:02;;;;;;;7.18;4.15;;;11.20;51.40;;;;;;5001433;28;20045;-69
2023/04/05 10:15:34;;;;;;;10.18;3.97;;;12.80;55.10;;;;;;4981223;28;20062;-70
2023/04/05 10:18:14;;;;;;;10.05;4.90;;;14.50;49.20;;;;;;4982787;28;20053;-72
2023/04/05 10:20:46;;;;;;;10.25;4.85;;;15.00;46.80;;;;;;4983805;28;20495;-70
2023/04/05 10:23:21;;;;;;;8.02;4.38;;;15.40;47.00;;;;;;4983585;28;20046;-70
2023/04/05 10:25:50;;;;;;;6.40;3.63;;;14.60;46.60;;;;;;4982519;28;20073;-69
2023/04/05 10:28:36;;;;;;;10.43;4.15;;;13.10;46.20;;;;;;4990129;28;20514;-70
2023/04/05 10:31:32;;;;;;;14.90;5.43;;;12.10;47.60;;;;;;4980808;28;20755;-70
2023/04/05 10:34:06;;;;;;;8.32;4.32;;;11.60;50.50;;;;;;4967324;28;20064;-69
2023/04/05 10:36:45;;;;;;;10.20;4.50;;;11.10;51.30;;;;;;4968960;28;20125;-69
2023/04/05 10:39:19;;;;;;;7.70;3.67;;;10.70;53.00;;;;;;4984113;28;20054;-70
2023/04/05 10:41:53;;;;;;;10.80;3.75;;;10.90;53.60;;;;;;4998582;28;20046;-69
2023/04/05 10:44:20;;;;;;;6.07;3.67;;;11.00;51.90;;;;;;4966038;28;20051;-70
2023/04/05 10:46:54;;;;;;;8.38;3.88;;;11.10;53.40;;;;;;4983431;28;20050;-69
2023/04/05 10:49:41;;;;;;;8.80;3.47;;;11.90;50.70;;;;;;4985525;28;20201;-69
2023/04/05 10:52:08;;;;;;;13.50;4.03;;;11.70;48.90;;;;;;4964368;28;20490;-69
2023/04/05 10:54:35;;;;;;;10.50;3.88;;;11.30;50.40;;;;;;4983191;28;20124;-70
2023/04/05 10:57:08;;;;;;;7.40;3.95;;;10.60;52.10;;;;;;4982090;28;20050;-71
2023/04/05 10:59:44;;;;;;;13.93;3.80;;;10.30;52.70;;;;;;4983552;28;20042;-70
2023/04/05 11:02:13;;;;;;;;;;;10.50;54.30;;;;;;4985317;28;20055;-72
2023/04/05 11:04:40;;;;;;;16.77;4.68;;;10.50;53.20;;;;;;4969363;28;19979;-71
2023/04/05 11:07:18;;;;;;;12.07;4.70;;;10.20;53.40;;;;;;4965837;28;20113;-70
2023/04/05 11:09:55;;;;;;;6.35;3.78;;;10.10;55.40;;;;;;4996142;28;20049;-71
2023/04/05 11:12:47;;;;;;;8.57;3.45;;;10.50;54.30;;;;;;4983637;28;20061;-72
2023/04/05 11:15:30;;;;;;;15.35;3.97;;;12.60;53.50;;;;;;4984475;28;20046;-71
2023/04/05 11:18:20;;;;;;;8.60;3.78;;;15.50;50.20;;;;;;4994390;28;20407;-70
2023/04/05 11:20:56;;;;;;;7.28;3.13;;;16.70;41.90;;;;;;4966177;28;20051;-71
2023/04/05 11:23:24;;;;;;;4.53;2.70;;;14.90;41.50;;;;;;4967094;28;20590;-71
2023/04/05 11:25:52;;;;;;;9.48;3.25;;;13.80;42.60;;;;;;4985764;28;20054;-71
2023/04/05 11:28:43;;;;;;;8.77;3.28;;;12.10;45.40;;;;;;4983920;28;20050;-71
2023/04/05 11:31:18;;;;;;;8.00;3.17;;;11.00;47.90;;;;;;4998305;28;20050;-71
2023/04/05 11:34:08;;;;;;;27.85;3.63;;;10.40;49.90;;;;;;4983963;28;20046;-71
2023/04/05 11:36:40;;;;;;;7.68;3.40;;;10.00;52.70;;;;;;4990355;28;20054;-71
2023/04/05 11:39:22;;;;;;;9.98;3.58;;;9.60;52.30;;;;;;4987023;28;20464;-71
2023/04/05 11:42:00;;;;;;;9.63;4.25;;;9.40;54.60;;;;;;4989233;28;20137;-71
2023/04/05 11:44:38;;;;;;;11.25;4.53;;;9.40;55.00;;;;;;4985602;28;20064;-71
2023/04/05 11:47:07;;;;;;;8.82;3.53;;;9.00;55.70;;;;;;4987134;28;20185;-71
2023/04/05 11:49:34;;;;;;;11.68;3.72;;;8.90;57.20;;;;;;4986475;28;20069;-71
2023/04/05 11:52:15;;;;;;;9.90;4.15;;;8.90;56.10;;;;;;4971240;28;20054;-79
2023/04/05 11:54:45;;;;;;;15.43;3.53;;;8.70;56.60;;;;;;4989746;28;20133;-79
2023/04/05 11:57:15;;;;;;;9.25;3.78;;;8.70;57.60;;;;;;4992710;28;20111;-79
2023/04/05 11:59:42;;;;;;;20.77;5.07;;;8.90;57.20;;;;;;4988452;28;20089;-79
2023/04/05 12:02:09;;;;;;;10.65;4.07;;;9.00;57.60;;;;;;4991015;28;20046;-79
2023/04/05 12:04:37;;;;;;;9.77;4.57;;;9.00;56.10;;;;;;4973681;28;20050;-79
2023/04/05 12:07:12;;;;;;;13.07;4.35;;;9.00;55.70;;;;;;4991634;28;20051;-79
2023/04/05 12:10:01;;;;;;;11.60;3.55;;;9.00;56.80;;;;;;4971694;28;20885;-79
2023/04/05 12:12:38;;;;;;;8.25;3.90;;;9.10;55.90;;;;;;4994195;28;20144;-80
2023/04/05 12:15:07;;;;;;;16.20;5.75;;;9.10;56.00;;;;;;4987639;28;20042;-80
2023/04/05 12:17:41;;;;;;;13.25;5.28;;;9.10;58.30;;;;;;4990053;28;20636;-71
2023/04/05 12:20:09;;;;;;;14.68;5.57;;;9.10;58.40;;;;;;4971954;28;20056;-71
2023/04/05 12:22:37;;;;;;;13.35;5.53;;;8.90;59.90;;;;;;4986042;28;20072;-71
2023/04/05 12:25:04;;;;;;;20.63;6.18;;;8.80;59.90;;;;;;4985048;28;20050;-71
2023/04/05 12:27:31;;;;;;;13.82;5.65;;;8.60;60.50;;;;;;4968594;28;20061;-69
2023/04/05 12:30:18;;;;;;;19.83;6.32;;;8.60;61.00;;;;;;4981258;28;20186;-69
2023/04/05 12:32:56;;;;;;;17.60;6.45;;;8.50;60.20;;;;;;4984134;28;20157;-71
2023/04/05 12:35:31;;;;;;;28.58;7.53;;;8.30;60.80;;;;;;4983919;28;20051;-72
2023/04/05 12:37:59;;;;;;;17.38;6.93;;;8.40;60.80;;;;;;4981391;28;20136;-69
2023/04/05 12:40:29;;;;;;;24.90;8.40;;;8.40;60.60;;;;;;4982665;28;20157;-70
2023/04/05 12:43:06;;;;;;;16.50;6.63;;;8.40;60.70;;;;;;4987152;28;20792;-70
2023/04/05 12:45:39;;;;;;;18.30;7.15;;;8.30;60.70;;;;;;4971465;28;20710;-71
2023/04/05 12:48:14;;;;;;;19.63;7.43;;;8.30;60.80;;;;;;4987902;28;20066;-79
2023/04/05 12:50:43;;;;;;;18.27;7.57;;;8.30;61.30;;;;;;4992334;28;20388;-78
2023/04/05 12:53:19;;;;;;;18.90;7.97;;;8.30;61.90;;;;;;4978660;28;20463;-79
2023/04/05 12:55:54;;;;;;;17.48;7.63;;;8.40;62.50;;;;;;4992496;28;20816;-80
2023/04/05 12:58:35;;;;;;;13.85;6.80;;;8.40;62.60;;;;;;4993055;28;20050;-79
2023/04/05 13:01:03;;;;;;;16.35;7.10;;;8.50;61.30;;;;;;4991507;28;20705;-79
2023/04/05 13:03:30;;;;;;;17.08;6.95;;;8.70;61.50;;;;;;5001536;28;20574;-79